Weather reports worldwide

Advertisment
La Molina, Spain (8117): temperature & dewpoint: 12.01.2018 06:00:00 - 18.01.2018 06:00:00 (CET)La Molina, Spain (8117): wind speed & gusts: 12.01.2018 06:00:00 - 18.01.2018 06:00:00 (CET)La Molina, Spain (8117): wind direction: 12.01.2018 06:00:00 - 18.01.2018 06:00:00 (CET)La Molina, Spain (8117): visibility: 12.01.2018 06:00:00 - 18.01.2018 06:00:00 (CET)La Molina, Spain (8117): sunshine duration: 12.01.2018 06:00:00 - 18.01.2018 06:00:00 (CET)La Molina, Spain (8117): precipitation: 12.01.2018 06:00:00 - 18.01.2018 06:00:00 (CET)
Date & Time tt [°C] td [°C] ff [km/h] ff [kn] fx [km/h] fx [kn] dd vv [km] sd [min] rr [mm]
18.01.2018 06:00:00 -1,8 -10,3 5 3 12 6 ESE 20 0 0,0
18.01.2018 05:00:00 -2,4 -11,2 3 2 11 6 E 20 0 0,0
18.01.2018 04:00:00 -2,6 -10,8 4 2 11 6 ESE 20 0 0,0
18.01.2018 03:00:00 -1,4 -11,2 7 4 15 8 E 20 0 0,0
18.01.2018 02:00:00 -2,5 -10,3 4 2 12 6 SE 20 0 0,0
18.01.2018 01:00:00 -2,7 -10,3 4 2 10 6 ESE 20 0 -
18.01.2018 00:00:00 -2,8 -10,3 7 4 12 6 ESE 20 0 0,0
17.01.2018 23:00:00 -2,7 -9,9 5 3 10 6 E 20 0 0,0
17.01.2018 22:00:00 -2,6 -10,3 6 3 11 6 SE 20 0 0,0
17.01.2018 21:00:00 -1,2 -10,8 5 3 12 6 SE 20 0 0,0
17.01.2018 20:00:00 -1,3 -10,3 5 3 - - ESE 20 - -
17.01.2018 19:00:00 -2,0 -9,0 7 4 14 7 SE 20 0 -
17.01.2018 18:00:00 -0,9 -9,9 6 3 18 10 SSE 20 0 0,0
17.01.2018 17:00:00 0,0 -10,3 10 5 16 9 S 20 34 0,0
17.01.2018 16:00:00 4,3 -7,8 5 3 21 11 NE 20 60 0,0
17.01.2018 15:00:00 4,8 -6,4 8 5 29 16 N 20 60 0,0
17.01.2018 14:00:00 5,4 -6,7 7 4 23 12 NE 20 60 0,0
17.01.2018 13:00:00 4,8 -6,4 5 3 18 10 ENE 20 60 -
17.01.2018 12:00:00 4,1 -6,4 7 4 26 14 SSE 20 60 0,0
17.01.2018 11:00:00 4,1 -6,7 7 4 23 12 N 20 36 0,0
17.01.2018 10:00:00 0,9 -7,8 6 4 17 9 S 20 0 0,0
17.01.2018 09:00:00 0,4 -7,1 4 2 21 12 SSW 20 0 0,0
17.01.2018 08:00:00 2,0 -6,0 10 5 26 14 W 20 0 0,0
17.01.2018 07:00:00 1,8 -4,2 7 4 30 16 W 20 0 -
17.01.2018 06:00:00 2,2 -4,2 9 5 24 13 W 20 0 0,0
17.01.2018 05:00:00 0,9 -2,2 6 3 17 9 SW 20 0 0,0
17.01.2018 04:00:00 0,9 -1,4 4 2 14 8 W 20 0 0,0
17.01.2018 03:00:00 0,9 -2,2 4 2 14 8 SSE 20 0 0,0
17.01.2018 02:00:00 1,0 -1,7 5 3 12 6 SE 20 0 0,0
17.01.2018 01:00:00 1,0 -1,7 6 4 14 7 SSE 20 0 -
17.01.2018 00:00:00 1,0 -1,2 8 4 16 9 S 20 0 0,0
16.01.2018 23:00:00 0,9 -1,0 7 4 17 9 SSE 20 0 0,0
16.01.2018 22:00:00 1,1 -0,7 8 4 11 6 SSE 20 0 0,0
16.01.2018 21:00:00 1,6 -0,3 7 4 13 7 SSE 20 0 0,0
16.01.2018 20:00:00 1,8 -0,5 6 4 12 6 SSW 20 0 0,0
16.01.2018 19:00:00 2,1 -0,3 6 3 13 7 S 20 0 -
16.01.2018 18:00:00 2,7 0,2 6 3 12 6 SSE 20 0 0,0
16.01.2018 17:00:00 2,9 0,2 8 4 11 6 SE 20 32 0,0
16.01.2018 16:00:00 5,0 1,1 6 3 14 8 S 20 60 0,0
16.01.2018 15:00:00 6,5 1,3 7 4 13 7 SSW 20 60 0,0
16.01.2018 14:00:00 4,6 0,2 8 4 11 6 S 20 60 0,0
16.01.2018 13:00:00 4,5 -0,7 6 4 13 7 SSE 20 60 -
16.01.2018 12:00:00 4,6 -1,2 8 4 13 7 S 20 60 0,0
16.01.2018 11:00:00 3,7 -2,0 8 4 15 8 S 20 36 0,0
16.01.2018 10:00:00 0,7 -4,5 7 4 17 9 S 20 0 0,0
16.01.2018 09:00:00 0,3 -5,4 9 5 20 11 SSE 20 0 0,0
16.01.2018 08:00:00 -0,5 -5,1 9 5 14 8 ESE 20 0 0,0
16.01.2018 07:00:00 -0,6 -4,8 7 4 13 7 ESE 20 0 -
16.01.2018 06:00:00 -1,1 -3,6 6 3 12 6 ESE 20 0 0,0
16.01.2018 05:00:00 -1,4 -3,0 5 3 13 7 SE 20 0 0,0
16.01.2018 04:00:00 -1,4 -3,3 9 5 13 7 ESE 20 0 0,0
16.01.2018 03:00:00 -2,2 -3,9 4 2 11 6 SE 20 0 0,0
16.01.2018 02:00:00 -2,7 -4,8 3 2 10 5 ESE 20 0 0,0
16.01.2018 01:00:00 -3,0 -5,4 8 4 12 6 ESE 20 0 -
16.01.2018 00:00:00 -3,4 -6,0 5 3 16 8 SE 20 0 0,0
15.01.2018 23:00:00 -3,2 -5,4 6 3 15 8 SSE 20 0 0,0
15.01.2018 22:00:00 -2,7 -3,9 4 2 12 6 N 20 0 0,0
15.01.2018 21:00:00 -2,8 -4,8 4 2 11 6 E 20 0 0,0
15.01.2018 20:00:00 -2,4 -4,2 3 1 11 6 SSE 20 0 0,0
15.01.2018 19:00:00 -1,9 -4,5 5 3 11 6 ESE 20 0 -
15.01.2018 18:00:00 -1,8 -4,5 4 2 9 5 E 20 0 0,0
15.01.2018 17:00:00 -0,9 -4,5 4 2 11 6 ESE 20 3 0,0
15.01.2018 16:00:00 0,9 -5,1 3 2 9 5 E 20 53 0,0
15.01.2018 15:00:00 2,2 -4,5 3 1 8 4 ENE 20 60 0,0
15.01.2018 14:00:00 0,4 -4,8 6 3 13 7 SSE 20 60 0,0
15.01.2018 13:00:00 -0,3 -5,4 4 2 10 5 SSE 20 60 -
15.01.2018 12:00:00 -1,4 -6,0 5 3 10 5 SSE 20 60 0,0
15.01.2018 11:00:00 -2,4 -6,7 5 3 11 6 SSE 20 37 0,0
15.01.2018 10:00:00 -4,9 -7,5 6 3 11 6 SE 20 0 0,0
15.01.2018 09:00:00 -4,9 -7,5 8 5 12 7 SSE 20 0 0,0
15.01.2018 08:00:00 -5,2 -7,5 5 3 11 6 SE 20 0 0,0
15.01.2018 07:00:00 -5,0 -7,1 6 3 10 5 SE 20 0 -
15.01.2018 06:00:00 -5,0 -7,1 5 3 11 6 SE 20 0 0,0
15.01.2018 05:00:00 -4,9 -7,1 5 3 10 5 SE 20 0 0,0
15.01.2018 04:00:00 -5,0 -7,1 5 3 15 8 SSW 20 0 0,0
15.01.2018 03:00:00 -4,5 -6,0 9 5 15 8 SSW 20 0 0,0
15.01.2018 02:00:00 -4,9 -6,4 6 3 10 5 ESE 20 0 0,0
15.01.2018 01:00:00 -4,3 -6,0 5 3 11 6 SE 20 0 -
15.01.2018 00:00:00 -3,7 -6,0 3 1 9 5 S 20 0 0,0
14.01.2018 23:00:00 -3,0 -5,1 6 4 10 5 SSW 20 0 0,0
14.01.2018 22:00:00 -3,6 -5,7 6 4 11 6 S 20 0 0,0
14.01.2018 21:00:00 -2,2 -4,8 5 3 11 6 S 15 0 0,0
14.01.2018 20:00:00 -2,1 -4,5 3 2 13 7 SW 20 0 0,0
14.01.2018 19:00:00 -2,2 -4,5 6 3 10 5 S 20 0 -
14.01.2018 18:00:00 -1,1 -3,9 4 2 8 5 SW 20 0 0,0
14.01.2018 17:00:00 -0,2 -3,3 4 2 10 5 SW 20 0 0,0
14.01.2018 16:00:00 0,2 -3,3 7 4 11 6 W 20 4 0,0
14.01.2018 15:00:00 -0,1 -3,6 2 1 11 6 SSE 20 0 0,0
14.01.2018 14:00:00 -0,3 -3,3 3 2 10 5 WSW 14 0 0,2
14.01.2018 13:00:00 -0,6 -3,0 5 3 15 8 WSW 1,1 0 -
14.01.2018 12:00:00 -1,2 -4,2 6 3 13 7 SW 11 0 0,0
14.01.2018 11:00:00 -1,4 -3,9 4 2 9 5 WSW 20 0 0,0
14.01.2018 10:00:00 -2,4 -3,3 2 1 8 4 W 5 0 0,0
14.01.2018 09:00:00 -2,9 -3,9 6 4 9 5 S 20 0 0,0
14.01.2018 08:00:00 -3,5 -4,2 3 1 5 3 ESE 15 0 0,0
14.01.2018 07:00:00 -3,0 -3,9 4 2 10 5 ESE 20 0 -
14.01.2018 06:00:00 -2,8 -3,3 1 1 5 3 ENE 18 0 0,0
14.01.2018 05:00:00 -2,7 -3,3 1 1 9 5 N 1,4 0 0,6
14.01.2018 04:00:00 -2,4 -3,3 2 1 7 4 NNE 13 0 0,2
14.01.2018 03:00:00 -2,5 -3,3 3 2 6 4 ESE 1,1 0 0,8
14.01.2018 02:00:00 -2,2 -3,6 2 1 13 7 NE 3,2 0 0,0
14.01.2018 01:00:00 -1,2 -4,2 4 2 30 16 S 15 0 -
14.01.2018 00:00:00 -1,5 -5,4 7 4 34 19 W 20 0 0,0
13.01.2018 23:00:00 -1,4 -2,5 7 4 35 19 WNW 4,1 0 0,2
13.01.2018 22:00:00 -2,3 -3,3 3 2 15 8 E 1,6 0 0,0
13.01.2018 21:00:00 -1,8 -3,9 10 5 36 19 W 20 0 0,0
13.01.2018 20:00:00 -2,3 -5,4 10 6 26 14 S 20 0 0,0
13.01.2018 19:00:00 -2,8 -5,7 3 1 8 4 SE 20 0 -
13.01.2018 18:00:00 -2,4 -6,0 1 1 11 6 NE 20 0 0,0
13.01.2018 17:00:00 -2,2 -6,4 5 3 11 6 E 20 0 0,0
13.01.2018 16:00:00 -0,6 -7,1 4 2 11 6 NE 20 14 0,0
13.01.2018 15:00:00 -0,1 -7,5 4 2 9 5 ESE 20 36 0,0
13.01.2018 14:00:00 -0,3 -8,6 6 3 10 6 NNE 20 16 0,0
13.01.2018 13:00:00 -0,6 -8,6 4 2 12 6 N 20 1 -
13.01.2018 12:00:00 -0,8 -9,0 1 1 5 3 N 20 5 0,0
13.01.2018 11:00:00 -1,9 -9,9 1 1 9 5 SE 20 0 0,0
13.01.2018 10:00:00 -3,7 -8,6 4 2 9 5 SSE 20 0 0,0
13.01.2018 09:00:00 -5,0 -9,9 5 3 9 5 SE 20 0 0,0
13.01.2018 08:00:00 -6,4 -11,7 3 2 10 5 SE 20 0 0,0
13.01.2018 07:00:00 -6,8 -11,7 6 3 12 6 SE 20 0 -
13.01.2018 06:00:00 -6,9 -11,7 7 4 11 6 SE 20 0 0,0
13.01.2018 05:00:00 -6,9 -12,2 8 4 12 6 ESE 20 0 0,0
13.01.2018 04:00:00 -7,0 -11,7 6 4 11 6 SE 20 0 0,0
13.01.2018 03:00:00 -7,3 -12,2 6 4 12 6 SE 20 0 0,0
13.01.2018 02:00:00 -7,1 -11,2 8 5 11 6 ESE 20 0 0,0
13.01.2018 01:00:00 -7,0 -10,8 8 4 11 6 SE 20 0 -
13.01.2018 00:00:00 -7,3 -10,8 7 4 12 6 ESE 20 0 0,0
12.01.2018 23:00:00 -6,5 -10,3 7 4 11 6 SE 20 0 0,0
12.01.2018 22:00:00 -6,3 -9,9 5 3 10 6 SE 20 0 0,0
12.01.2018 21:00:00 -6,1 -9,4 7 4 11 6 SSE 20 0 0,0
12.01.2018 20:00:00 -6,2 -8,6 6 4 11 6 SSE 20 0 0,0
12.01.2018 19:00:00 -4,9 -9,0 4 2 24 13 E 20 0 -
12.01.2018 18:00:00 -4,0 -7,8 8 5 18 10 SSW 20 0 0,0
12.01.2018 17:00:00 -2,4 -7,5 7 4 19 10 WNW 20 24 0,0
12.01.2018 16:00:00 -0,2 -6,0 3 1 16 9 SSW 20 55 0,0
12.01.2018 15:00:00 0,5 -6,0 9 5 21 11 W 20 59 0,0
12.01.2018 14:00:00 0,1 -6,4 11 6 21 11 WNW 20 60 0,0
12.01.2018 13:00:00 0,3 -6,0 5 3 16 9 WNW 20 60 -
12.01.2018 12:00:00 -0,5 -6,7 6 3 18 10 N 20 58 0,0
12.01.2018 11:00:00 -2,1 -7,1 4 2 11 6 NNW 20 35 0,0
12.01.2018 10:00:00 -3,7 -7,8 8 4 29 15 W 20 0 0,0
12.01.2018 09:00:00 -4,8 -8,6 7 4 22 12 SW 20 0 0,0
12.01.2018 08:00:00 -4,3 -9,4 8 4 36 19 W 20 0 0,0
12.01.2018 07:00:00 -4,5 -9,9 10 5 22 12 SW 20 0 -
12.01.2018 06:00:00 -3,9 -10,3 6 3 30 16 WSW 19 0 0,0

tt = temperature
td = dewpoint
ff = wind speed
fx = gusts
dd = wind direction
vv = visibility
sd = sunshine duration
rr = precipitation

Next stations